Terminal Aerodrome Forecast
Issued by NWS

Home | Current Version | Previous Version | Text Only | Print | Product List | Glossary On
Versions: 1 2 3 4 5 6 7 8 9 10 11 12 13 14 15 16 17 18 19 20 21 22 23
107
FTUS41 KPBZ 211724
TAFHLG
TAF
KHLG 211724Z 2118/2218 22014G25KT P6SM SCT200
     FM212300 21009KT P6SM BKN120
     FM220700 29008KT P6SM -SHRA OVC015
     FM220900 30007KT P6SM -SHSN BKN020
     FM221200 30007KT P6SM VCSH BKN025=

USA.gov is the U.S. government's official web portal to all federal, state and local government web resources and services.